sensor_id;sensor_type;location;lat;lon;timestamp;P1;durP1;ratioP1;P2;durP2;ratioP2
56728;SDS011;42612;52.232;7.560;2022-10-16T08:30:26;1.90;;;1.25;;
56728;SDS011;42612;52.232;7.560;2022-10-16T08:32:52;2.42;;;1.20;;
56728;SDS011;42612;52.232;7.560;2022-10-16T08:35:18;2.75;;;1.60;;
56728;SDS011;42612;52.232;7.560;2022-10-16T08:37:43;2.05;;;1.65;;
56728;SDS011;42612;52.232;7.560;2022-10-16T08:40:19;2.33;;;1.38;;
56728;SDS011;42612;52.232;7.560;2022-10-16T08:43:08;1.92;;;1.73;;
56728;SDS011;42612;52.232;7.560;2022-10-16T08:45:52;2.05;;;1.35;;
56728;SDS011;42612;52.232;7.560;2022-10-16T08:48:45;2.42;;;1.10;;
56728;SDS011;42612;52.232;7.560;2022-10-16T08:51:20;1.50;;;1.40;;
56728;SDS011;42612;52.232;7.560;2022-10-16T08:56:24;1.65;;;1.25;;
56728;SDS011;42612;52.232;7.560;2022-10-16T08:58:51;2.78;;;1.20;;
56728;SDS011;42612;52.232;7.560;2022-10-16T09:01:19;2.25;;;1.70;;
56728;SDS011;42612;52.232;7.560;2022-10-16T09:09:49;1.77;;;1.55;;
56728;SDS011;42612;52.232;7.560;2022-10-16T09:12:36;1.50;;;1.10;;
56728;SDS011;42612;52.232;7.560;2022-10-16T09:18:15;5.20;;;1.25;;
56728;SDS011;42612;52.232;7.560;2022-10-16T09:23:37;3.22;;;1.42;;
56728;SDS011;42612;52.232;7.560;2022-10-16T09:26:03;2.42;;;1.33;;
56728;SDS011;42612;52.232;7.560;2022-10-16T09:30:56;1.75;;;1.20;;
56728;SDS011;42612;52.232;7.560;2022-10-16T09:33:23;2.20;;;1.00;;
56728;SDS011;42612;52.232;7.560;2022-10-16T09:35:55;2.00;;;1.17;;
56728;SDS011;42612;52.232;7.560;2022-10-16T09:38:29;2.90;;;1.48;;
56728;SDS011;42612;52.232;7.560;2022-10-16T09:41:02;1.95;;;1.13;;
56728;SDS011;42612;52.232;7.560;2022-10-16T09:43:59;2.92;;;1.05;;
56728;SDS011;42612;52.232;7.560;2022-10-16T09:46:29;2.10;;;1.23;;
56728;SDS011;42612;52.232;7.560;2022-10-16T09:49:05;4.38;;;1.38;;
56728;SDS011;42612;52.232;7.560;2022-10-16T09:51:49;3.03;;;1.20;;
56728;SDS011;42612;52.232;7.560;2022-10-16T09:54:20;1.25;;;0.90;;
56728;SDS011;42612;52.232;7.560;2022-10-16T09:56:46;1.35;;;1.02;;
56728;SDS011;42612;52.232;7.560;2022-10-16T09:59:19;2.65;;;1.25;;
56728;SDS011;42612;52.232;7.560;2022-10-16T10:01:52;2.50;;;1.20;;
56728;SDS011;42612;52.232;7.560;2022-10-16T10:04:20;2.67;;;1.20;;
56728;SDS011;42612;52.232;7.560;2022-10-16T10:06:49;1.27;;;0.90;;
56728;SDS011;42612;52.232;7.560;2022-10-16T10:11:53;2.03;;;1.20;;
56728;SDS011;42612;52.232;7.560;2022-10-16T10:19:38;2.85;;;1.55;;
56728;SDS011;42612;52.232;7.560;2022-10-16T10:22:18;3.13;;;1.38;;
56728;SDS011;42612;52.232;7.560;2022-10-16T10:24:56;3.08;;;1.30;;
56728;SDS011;42612;52.232;7.560;2022-10-16T10:37:22;4.40;;;1.70;;
56728;SDS011;42612;52.232;7.560;2022-10-16T10:42:53;2.33;;;1.40;;
56728;SDS011;42612;52.232;7.560;2022-10-16T10:45:48;1.48;;;1.33;;
56728;SDS011;42612;52.232;7.560;2022-10-16T10:48:27;2.58;;;1.30;;
56728;SDS011;42612;52.232;7.560;2022-10-16T10:51:38;2.08;;;1.50;;
56728;SDS011;42612;52.232;7.560;2022-10-16T10:54:52;3.88;;;1.80;;
56728;SDS011;42612;52.232;7.560;2022-10-16T11:06:51;3.40;;;2.40;;
56728;SDS011;42612;52.232;7.560;2022-10-16T11:09:25;3.72;;;2.58;;
56728;SDS011;42612;52.232;7.560;2022-10-16T11:12:19;4.10;;;2.25;;
56728;SDS011;42612;52.232;7.560;2022-10-16T11:14:57;7.28;;;2.60;;
56728;SDS011;42612;52.232;7.560;2022-10-16T11:20:41;6.07;;;2.67;;
56728;SDS011;42612;52.232;7.560;2022-10-16T11:26:21;4.43;;;2.72;;
56728;SDS011;42612;52.232;7.560;2022-10-16T11:28:56;7.95;;;3.13;;
56728;SDS011;42612;52.232;7.560;2022-10-16T11:34:05;4.05;;;2.30;;
56728;SDS011;42612;52.232;7.560;2022-10-16T11:37:08;3.95;;;2.17;;
56728;SDS011;42612;52.232;7.560;2022-10-16T11:39:45;3.88;;;2.67;;
56728;SDS011;42612;52.232;7.560;2022-10-16T11:47:36;5.97;;;2.30;;
56728;SDS011;42612;52.232;7.560;2022-10-16T11:53:16;5.13;;;2.10;;
56728;SDS011;42612;52.232;7.560;2022-10-16T11:56:15;4.55;;;2.10;;
56728;SDS011;42612;52.232;7.560;2022-10-16T12:01:33;3.28;;;1.77;;
56728;SDS011;42612;52.232;7.560;2022-10-16T12:07:11;5.35;;;2.45;;
56728;SDS011;42612;52.232;7.560;2022-10-16T12:09:43;2.50;;;1.48;;
56728;SDS011;42612;52.232;7.560;2022-10-16T12:15:00;5.50;;;1.75;;
56728;SDS011;42612;52.232;7.560;2022-10-16T12:17:48;5.05;;;1.73;;
56728;SDS011;42612;52.232;7.560;2022-10-16T12:20:19;5.45;;;1.52;;
56728;SDS011;42612;52.232;7.560;2022-10-16T12:23:00;2.00;;;1.40;;
56728;SDS011;42612;52.232;7.560;2022-10-16T12:25:30;5.70;;;1.67;;
56728;SDS011;42612;52.232;7.560;2022-10-16T12:28:05;3.55;;;1.65;;
56728;SDS011;42612;52.232;7.560;2022-10-16T12:30:43;4.03;;;1.50;;
56728;SDS011;42612;52.232;7.560;2022-10-16T12:33:30;3.25;;;1.30;;
56728;SDS011;42612;52.232;7.560;2022-10-16T12:36:15;5.30;;;1.52;;
56728;SDS011;42612;52.232;7.560;2022-10-16T12:38:56;4.60;;;1.60;;
56728;SDS011;42612;52.232;7.560;2022-10-16T12:41:24;3.80;;;1.67;;
56728;SDS011;42612;52.232;7.560;2022-10-16T12:43:57;2.45;;;1.40;;
56728;SDS011;42612;52.232;7.560;2022-10-16T12:49:05;4.53;;;1.60;;
56728;SDS011;42612;52.232;7.560;2022-10-16T12:51:37;4.80;;;1.42;;
56728;SDS011;42612;52.232;7.560;2022-10-16T13:02:29;3.03;;;1.40;;
56728;SDS011;42612;52.232;7.560;2022-10-16T13:05:25;3.70;;;1.20;;
56728;SDS011;42612;52.232;7.560;2022-10-16T13:14:00;3.22;;;1.42;;
56728;SDS011;42612;52.232;7.560;2022-10-16T13:19:58;5.53;;;1.55;;
56728;SDS011;42612;52.232;7.560;2022-10-16T13:28:22;5.85;;;1.40;;
56728;SDS011;42612;52.232;7.560;2022-10-16T13:30:56;2.75;;;1.20;;
56728;SDS011;42612;52.232;7.560;2022-10-16T13:36:03;3.30;;;1.20;;
56728;SDS011;42612;52.232;7.560;2022-10-16T13:38:31;5.15;;;1.10;;
56728;SDS011;42612;52.232;7.560;2022-10-16T13:41:05;5.63;;;1.50;;
56728;SDS011;42612;52.232;7.560;2022-10-16T13:46:14;3.10;;;1.13;;
56728;SDS011;42612;52.232;7.560;2022-10-16T13:48:59;2.28;;;1.20;;
56728;SDS011;42612;52.232;7.560;2022-10-16T13:51:39;4.00;;;1.10;;
56728;SDS011;42612;52.232;7.560;2022-10-16T13:54:04;3.70;;;1.40;;
56728;SDS011;42612;52.232;7.560;2022-10-16T13:56:31;4.80;;;1.27;;
56728;SDS011;42612;52.232;7.560;2022-10-16T14:01:50;6.38;;;1.40;;
56728;SDS011;42612;52.232;7.560;2022-10-16T14:04:16;2.67;;;1.30;;
56728;SDS011;42612;52.232;7.560;2022-10-16T14:06:43;2.25;;;0.93;;
56728;SDS011;42612;52.232;7.560;2022-10-16T14:09:29;2.72;;;1.20;;
56728;SDS011;42612;52.232;7.560;2022-10-16T14:11:57;6.70;;;1.50;;
56728;SDS011;42612;52.232;7.560;2022-10-16T14:14:32;3.90;;;1.10;;
56728;SDS011;42612;52.232;7.560;2022-10-16T14:17:26;3.97;;;1.15;;
56728;SDS011;42612;52.232;7.560;2022-10-16T14:19:56;4.85;;;1.40;;
56728;SDS011;42612;52.232;7.560;2022-10-16T14:22:32;3.90;;;1.17;;
56728;SDS011;42612;52.232;7.560;2022-10-16T14:25:45;3.25;;;1.10;;
56728;SDS011;42612;52.232;7.560;2022-10-16T14:27:59;5.15;;;2.22;;
56728;SDS011;42612;52.232;7.560;2022-10-16T14:30:48;3.15;;;1.30;;
56728;SDS011;42612;52.232;7.560;2022-10-16T14:33:30;5.28;;;1.35;;
56728;SDS011;42612;52.232;7.560;2022-10-16T14:36:05;1.83;;;1.05;;
56728;SDS011;42612;52.232;7.560;2022-10-16T14:38:34;2.47;;;1.27;;
56728;SDS011;42612;52.232;7.560;2022-10-16T14:40:59;3.42;;;1.20;;
56728;SDS011;42612;52.232;7.560;2022-10-16T14:43:29;4.82;;;1.20;;
56728;SDS011;42612;52.232;7.560;2022-10-16T14:46:00;3.20;;;1.30;;
56728;SDS011;42612;52.232;7.560;2022-10-16T14:48:29;3.80;;;1.20;;
56728;SDS011;42612;52.232;7.560;2022-10-16T14:50:55;2.17;;;1.10;;
56728;SDS011;42612;52.232;7.560;2022-10-16T14:53:21;3.35;;;1.30;;
56728;SDS011;42612;52.232;7.560;2022-10-16T14:55:47;3.45;;;1.10;;
56728;SDS011;42612;52.232;7.560;2022-10-16T14:58:18;2.03;;;1.23;;
56728;SDS011;42612;52.232;7.560;2022-10-16T15:00:46;3.72;;;1.23;;
56728;SDS011;42612;52.232;7.560;2022-10-16T15:03:13;4.35;;;1.20;;
56728;SDS011;42612;52.232;7.560;2022-10-16T15:05:38;5.30;;;1.17;;
56728;SDS011;42612;52.232;7.560;2022-10-16T15:08:04;2.47;;;1.10;;
56728;SDS011;42612;52.232;7.560;2022-10-16T15:10:30;5.13;;;1.35;;
56728;SDS011;42612;52.232;7.560;2022-10-16T15:13:11;5.45;;;1.25;;
56728;SDS011;42612;52.232;7.560;2022-10-16T15:15:45;3.53;;;1.00;;
56728;SDS011;42612;52.232;7.560;2022-10-16T15:18:14;1.90;;;1.00;;
56728;SDS011;42612;52.232;7.560;2022-10-16T15:20:45;2.70;;;1.10;;
56728;SDS011;42612;52.232;7.560;2022-10-16T15:23:14;2.97;;;1.00;;
56728;SDS011;42612;52.232;7.560;2022-10-16T15:25:46;2.25;;;1.08;;
56728;SDS011;42612;52.232;7.560;2022-10-16T15:28:25;3.42;;;1.08;;
56728;SDS011;42612;52.232;7.560;2022-10-16T15:30:51;3.55;;;1.25;;
56728;SDS011;42612;52.232;7.560;2022-10-16T15:33:20;2.72;;;1.35;;
56728;SDS011;42612;52.232;7.560;2022-10-16T15:35:50;1.60;;;0.90;;
56728;SDS011;42612;52.232;7.560;2022-10-16T15:38:17;2.33;;;1.10;;
56728;SDS011;42612;52.232;7.560;2022-10-16T15:40:47;2.40;;;1.20;;
56728;SDS011;42612;52.232;7.560;2022-10-16T15:43:14;2.33;;;1.20;;
56728;SDS011;42612;52.232;7.560;2022-10-16T15:45:40;2.60;;;0.88;;
56728;SDS011;42612;52.232;7.560;2022-10-16T15:48:08;4.50;;;1.13;;
56728;SDS011;42612;52.232;7.560;2022-10-16T15:50:37;2.30;;;1.17;;
56728;SDS011;42612;52.232;7.560;2022-10-16T15:53:03;4.40;;;1.45;;
56728;SDS011;42612;52.232;7.560;2022-10-16T15:55:29;3.78;;;1.30;;
56728;SDS011;42612;52.232;7.560;2022-10-16T15:57:55;2.67;;;1.23;;
56728;SDS011;42612;52.232;7.560;2022-10-16T16:00:20;2.13;;;1.20;;
56728;SDS011;42612;52.232;7.560;2022-10-16T16:02:53;6.03;;;1.52;;
56728;SDS011;42612;52.232;7.560;2022-10-16T16:05:21;3.63;;;1.17;;
56728;SDS011;42612;52.232;7.560;2022-10-16T16:07:47;1.80;;;1.13;;
56728;SDS011;42612;52.232;7.560;2022-10-16T16:10:14;4.40;;;1.27;;
56728;SDS011;42612;52.232;7.560;2022-10-16T16:12:40;5.15;;;0.98;;
56728;SDS011;42612;52.232;7.560;2022-10-16T16:15:06;4.65;;;1.10;;
56728;SDS011;42612;52.232;7.560;2022-10-16T16:17:34;8.45;;;1.40;;
56728;SDS011;42612;52.232;7.560;2022-10-16T16:20:00;7.28;;;1.50;;
56728;SDS011;42612;52.232;7.560;2022-10-16T16:22:26;3.33;;;1.48;;
56728;SDS011;42612;52.232;7.560;2022-10-16T16:24:52;7.78;;;1.70;;
56728;SDS011;42612;52.232;7.560;2022-10-16T16:27:18;2.05;;;1.55;;
56728;SDS011;42612;52.232;7.560;2022-10-16T16:29:44;3.90;;;1.70;;
56728;SDS011;42612;52.232;7.560;2022-10-16T16:32:11;7.30;;;1.50;;
56728;SDS011;42612;52.232;7.560;2022-10-16T16:34:37;5.63;;;1.58;;
56728;SDS011;42612;52.232;7.560;2022-10-16T16:37:02;4.93;;;1.58;;
56728;SDS011;42612;52.232;7.560;2022-10-16T16:39:28;3.28;;;1.40;;
56728;SDS011;42612;52.232;7.560;2022-10-16T16:41:55;4.40;;;1.40;;
56728;SDS011;42612;52.232;7.560;2022-10-16T16:44:23;4.15;;;1.65;;
56728;SDS011;42612;52.232;7.560;2022-10-16T16:46:50;3.90;;;1.60;;
56728;SDS011;42612;52.232;7.560;2022-10-16T16:49:16;2.45;;;1.35;;
56728;SDS011;42612;52.232;7.560;2022-10-16T16:51:42;1.70;;;1.40;;
56728;SDS011;42612;52.232;7.560;2022-10-16T16:54:07;2.75;;;1.55;;
56728;SDS011;42612;52.232;7.560;2022-10-16T16:56:36;4.75;;;1.65;;
56728;SDS011;42612;52.232;7.560;2022-10-16T16:59:02;3.85;;;1.38;;
56728;SDS011;42612;52.232;7.560;2022-10-16T17:01:29;3.30;;;1.50;;
56728;SDS011;42612;52.232;7.560;2022-10-16T17:03:56;6.22;;;1.58;;
56728;SDS011;42612;52.232;7.560;2022-10-16T17:06:25;2.40;;;1.33;;
56728;SDS011;42612;52.232;7.560;2022-10-16T17:08:54;3.78;;;1.65;;
56728;SDS011;42612;52.232;7.560;2022-10-16T17:11:22;1.47;;;1.07;;
56728;SDS011;42612;52.232;7.560;2022-10-16T17:13:51;4.03;;;1.42;;
56728;SDS011;42612;52.232;7.560;2022-10-16T17:16:19;4.00;;;1.45;;
56728;SDS011;42612;52.232;7.560;2022-10-16T17:21:12;4.38;;;1.20;;
56728;SDS011;42612;52.232;7.560;2022-10-16T17:23:38;2.92;;;1.00;;
56728;SDS011;42612;52.232;7.560;2022-10-16T17:28:40;3.45;;;1.30;;
56728;SDS011;42612;52.232;7.560;2022-10-16T17:31:17;5.85;;;1.52;;
56728;SDS011;42612;52.232;7.560;2022-10-16T17:33:46;4.35;;;1.45;;
56728;SDS011;42612;52.232;7.560;2022-10-16T17:36:12;2.40;;;1.30;;
56728;SDS011;42612;52.232;7.560;2022-10-16T17:38:39;5.20;;;1.37;;
56728;SDS011;42612;52.232;7.560;2022-10-16T17:41:20;6.13;;;1.90;;
56728;SDS011;42612;52.232;7.560;2022-10-16T17:43:48;2.20;;;1.45;;
56728;SDS011;42612;52.232;7.560;2022-10-16T17:46:16;3.40;;;1.52;;
56728;SDS011;42612;52.232;7.560;2022-10-16T17:48:45;2.72;;;1.58;;
56728;SDS011;42612;52.232;7.560;2022-10-16T17:51:14;4.38;;;1.20;;
56728;SDS011;42612;52.232;7.560;2022-10-16T17:53:46;1.40;;;1.30;;
56728;SDS011;42612;52.232;7.560;2022-10-16T17:56:13;1.65;;;1.20;;
56728;SDS011;42612;52.232;7.560;2022-10-16T17:58:40;2.40;;;0.90;;
56728;SDS011;42612;52.232;7.560;2022-10-16T18:01:17;1.35;;;1.25;;
56728;SDS011;42612;52.232;7.560;2022-10-16T18:03:53;7.93;;;1.40;;
56728;SDS011;42612;52.232;7.560;2022-10-16T18:06:22;3.35;;;1.17;;
56728;SDS011;42612;52.232;7.560;2022-10-16T18:08:49;1.25;;;1.00;;
56728;SDS011;42612;52.232;7.560;2022-10-16T18:11:16;4.28;;;1.20;;
56728;SDS011;42612;52.232;7.560;2022-10-16T18:13:43;4.65;;;1.10;;
56728;SDS011;42612;52.232;7.560;2022-10-16T18:16:09;5.17;;;1.47;;
56728;SDS011;42612;52.232;7.560;2022-10-16T18:18:38;2.35;;;1.23;;
56728;SDS011;42612;52.232;7.560;2022-10-16T18:21:06;1.40;;;1.30;;
56728;SDS011;42612;52.232;7.560;2022-10-16T18:23:34;4.47;;;1.45;;
56728;SDS011;42612;52.232;7.560;2022-10-16T18:26:01;4.82;;;1.73;;
56728;SDS011;42612;52.232;7.560;2022-10-16T18:28:29;2.90;;;1.60;;
56728;SDS011;42612;52.232;7.560;2022-10-16T18:30:56;2.17;;;1.38;;
56728;SDS011;42612;52.232;7.560;2022-10-16T18:33:27;2.40;;;1.50;;
56728;SDS011;42612;52.232;7.560;2022-10-16T18:35:59;4.05;;;1.70;;
56728;SDS011;42612;52.232;7.560;2022-10-16T18:38:27;6.95;;;2.10;;
56728;SDS011;42612;52.232;7.560;2022-10-16T18:40:53;2.95;;;1.48;;
56728;SDS011;42612;52.232;7.560;2022-10-16T18:43:19;2.80;;;1.83;;
56728;SDS011;42612;52.232;7.560;2022-10-16T18:45:53;3.25;;;1.67;;
56728;SDS011;42612;52.232;7.560;2022-10-16T18:48:23;3.92;;;1.52;;
56728;SDS011;42612;52.232;7.560;2022-10-16T18:50:50;3.15;;;1.95;;
56728;SDS011;42612;52.232;7.560;2022-10-16T18:53:16;2.60;;;1.33;;
56728;SDS011;42612;52.232;7.560;2022-10-16T18:55:42;5.05;;;1.60;;
56728;SDS011;42612;52.232;7.560;2022-10-16T18:58:15;1.75;;;1.33;;
56728;SDS011;42612;52.232;7.560;2022-10-16T19:00:41;3.88;;;1.85;;
56728;SDS011;42612;52.232;7.560;2022-10-16T19:03:07;2.25;;;1.48;;
56728;SDS011;42612;52.232;7.560;2022-10-16T19:05:32;3.47;;;1.63;;
56728;SDS011;42612;52.232;7.560;2022-10-16T19:07:58;4.55;;;1.60;;
56728;SDS011;42612;52.232;7.560;2022-10-16T19:10:24;1.70;;;1.35;;
56728;SDS011;42612;52.232;7.560;2022-10-16T19:12:49;4.28;;;1.50;;
56728;SDS011;42612;52.232;7.560;2022-10-16T19:15:15;2.28;;;1.30;;
56728;SDS011;42612;52.232;7.560;2022-10-16T19:17:41;2.78;;;1.58;;
56728;SDS011;42612;52.232;7.560;2022-10-16T19:20:07;6.63;;;1.90;;
56728;SDS011;42612;52.232;7.560;2022-10-16T19:22:33;2.75;;;1.48;;
56728;SDS011;42612;52.232;7.560;2022-10-16T19:25:20;2.85;;;1.63;;
56728;SDS011;42612;52.232;7.560;2022-10-16T19:27:47;2.60;;;1.65;;
56728;SDS011;42612;52.232;7.560;2022-10-16T19:30:15;5.05;;;1.83;;
56728;SDS011;42612;52.232;7.560;2022-10-16T19:32:42;4.82;;;1.65;;
56728;SDS011;42612;52.232;7.560;2022-10-16T19:35:09;2.78;;;1.35;;
56728;SDS011;42612;52.232;7.560;2022-10-16T19:37:36;4.73;;;1.67;;
56728;SDS011;42612;52.232;7.560;2022-10-16T19:40:02;1.55;;;1.33;;
56728;SDS011;42612;52.232;7.560;2022-10-16T19:42:29;2.55;;;1.60;;
56728;SDS011;42612;52.232;7.560;2022-10-16T19:44:55;1.85;;;1.33;;
56728;SDS011;42612;52.232;7.560;2022-10-16T19:47:21;2.30;;;1.70;;
56728;SDS011;42612;52.232;7.560;2022-10-16T19:49:48;2.92;;;1.50;;
56728;SDS011;42612;52.232;7.560;2022-10-16T19:52:14;2.58;;;1.55;;
56728;SDS011;42612;52.232;7.560;2022-10-16T19:54:41;2.28;;;1.55;;
56728;SDS011;42612;52.232;7.560;2022-10-16T19:57:07;5.55;;;1.80;;
56728;SDS011;42612;52.232;7.560;2022-10-16T19:59:33;3.22;;;1.85;;
56728;SDS011;42612;52.232;7.560;2022-10-16T20:01:59;4.20;;;1.67;;
56728;SDS011;42612;52.232;7.560;2022-10-16T20:04:25;3.65;;;2.00;;
56728;SDS011;42612;52.232;7.560;2022-10-16T20:06:50;4.15;;;2.30;;
56728;SDS011;42612;52.232;7.560;2022-10-16T20:09:16;3.45;;;1.90;;
56728;SDS011;42612;52.232;7.560;2022-10-16T20:11:42;1.80;;;1.35;;
56728;SDS011;42612;52.232;7.560;2022-10-16T20:14:08;3.97;;;1.45;;
56728;SDS011;42612;52.232;7.560;2022-10-16T20:16:34;3.67;;;1.40;;
56728;SDS011;42612;52.232;7.560;2022-10-16T20:19:00;4.85;;;1.67;;
56728;SDS011;42612;52.232;7.560;2022-10-16T20:21:28;2.72;;;1.73;;
56728;SDS011;42612;52.232;7.560;2022-10-16T20:23:58;2.85;;;1.45;;
56728;SDS011;42612;52.232;7.560;2022-10-16T20:26:25;4.55;;;1.40;;
56728;SDS011;42612;52.232;7.560;2022-10-16T20:28:51;2.55;;;1.52;;
56728;SDS011;42612;52.232;7.560;2022-10-16T20:31:19;5.07;;;2.00;;
56728;SDS011;42612;52.232;7.560;2022-10-16T20:33:53;3.00;;;1.58;;
56728;SDS011;42612;52.232;7.560;2022-10-16T20:36:21;5.55;;;1.48;;
56728;SDS011;42612;52.232;7.560;2022-10-16T20:38:49;3.80;;;1.70;;
56728;SDS011;42612;52.232;7.560;2022-10-16T20:41:16;1.65;;;1.42;;
56728;SDS011;42612;52.232;7.560;2022-10-16T20:43:43;9.63;;;2.13;;
56728;SDS011;42612;52.232;7.560;2022-10-16T20:46:12;5.43;;;1.73;;
56728;SDS011;42612;52.232;7.560;2022-10-16T20:48:40;3.90;;;2.10;;
56728;SDS011;42612;52.232;7.560;2022-10-16T20:51:14;3.70;;;1.70;;
56728;SDS011;42612;52.232;7.560;2022-10-16T20:53:58;10.88;;;6.65;;
56728;SDS011;42612;52.232;7.560;2022-10-16T20:56:29;5.53;;;3.55;;
56728;SDS011;42612;52.232;7.560;2022-10-16T20:58:57;3.45;;;2.08;;
56728;SDS011;42612;52.232;7.560;2022-10-16T21:01:24;5.60;;;2.30;;
56728;SDS011;42612;52.232;7.560;2022-10-16T21:03:53;2.28;;;1.75;;
56728;SDS011;42612;52.232;7.560;2022-10-16T21:06:22;3.92;;;2.35;;
56728;SDS011;42612;52.232;7.560;2022-10-16T21:08:49;3.20;;;1.88;;
56728;SDS011;42612;52.232;7.560;2022-10-16T21:11:22;6.05;;;2.58;;
56728;SDS011;42612;52.232;7.560;2022-10-16T21:13:52;2.90;;;1.92;;
56728;SDS011;42612;52.232;7.560;2022-10-16T21:16:20;4.50;;;1.98;;
56728;SDS011;42612;52.232;7.560;2022-10-16T21:18:46;3.60;;;2.15;;
56728;SDS011;42612;52.232;7.560;2022-10-16T21:21:22;4.30;;;2.35;;
56728;SDS011;42612;52.232;7.560;2022-10-16T21:23:50;4.03;;;2.20;;
56728;SDS011;42612;52.232;7.560;2022-10-16T21:26:17;3.80;;;2.10;;
56728;SDS011;42612;52.232;7.560;2022-10-16T21:28:47;2.78;;;1.80;;
56728;SDS011;42612;52.232;7.560;2022-10-16T21:31:13;2.45;;;2.10;;
56728;SDS011;42612;52.232;7.560;2022-10-16T21:33:42;2.63;;;2.22;;
56728;SDS011;42612;52.232;7.560;2022-10-16T21:36:16;2.13;;;1.90;;
56728;SDS011;42612;52.232;7.560;2022-10-16T21:38:47;5.50;;;1.90;;
56728;SDS011;42612;52.232;7.560;2022-10-16T21:41:18;3.25;;;1.85;;
56728;SDS011;42612;52.232;7.560;2022-10-16T21:43:52;3.95;;;1.90;;
56728;SDS011;42612;52.232;7.560;2022-10-16T21:46:20;3.35;;;1.90;;
56728;SDS011;42612;52.232;7.560;2022-10-16T21:48:53;11.57;;;2.65;;
56728;SDS011;42612;52.232;7.560;2022-10-16T21:51:24;3.22;;;2.17;;
56728;SDS011;42612;52.232;7.560;2022-10-16T21:53:51;2.63;;;2.40;;
56728;SDS011;42612;52.232;7.560;2022-10-16T21:56:17;3.67;;;2.40;;
56728;SDS011;42612;52.232;7.560;2022-10-16T21:58:43;2.75;;;2.47;;
56728;SDS011;42612;52.232;7.560;2022-10-16T22:01:11;2.80;;;2.03;;
56728;SDS011;42612;52.232;7.560;2022-10-16T22:03:39;3.20;;;2.42;;
56728;SDS011;42612;52.232;7.560;2022-10-16T22:06:06;3.08;;;2.10;;
56728;SDS011;42612;52.232;7.560;2022-10-16T22:08:33;2.55;;;2.35;;
56728;SDS011;42612;52.232;7.560;2022-10-16T22:11:12;4.07;;;2.50;;
56728;SDS011;42612;52.232;7.560;2022-10-16T22:13:41;3.65;;;2.30;;
56728;SDS011;42612;52.232;7.560;2022-10-16T22:16:08;3.47;;;2.53;;
56728;SDS011;42612;52.232;7.560;2022-10-16T22:18:35;3.23;;;2.60;;
56728;SDS011;42612;52.232;7.560;2022-10-16T22:21:03;2.70;;;2.45;;
56728;SDS011;42612;52.232;7.560;2022-10-16T22:23:30;4.85;;;2.58;;
56728;SDS011;42612;52.232;7.560;2022-10-16T22:25:59;3.80;;;2.50;;
56728;SDS011;42612;52.232;7.560;2022-10-16T22:28:28;3.05;;;2.40;;
56728;SDS011;42612;52.232;7.560;2022-10-16T22:30:53;2.50;;;2.30;;
56728;SDS011;42612;52.232;7.560;2022-10-16T22:33:19;3.72;;;2.40;;
56728;SDS011;42612;52.232;7.560;2022-10-16T22:35:45;3.53;;;2.30;;
56728;SDS011;42612;52.232;7.560;2022-10-16T22:38:11;2.53;;;2.33;;
56728;SDS011;42612;52.232;7.560;2022-10-16T22:40:37;3.08;;;2.60;;
56728;SDS011;42612;52.232;7.560;2022-10-16T22:43:03;2.40;;;2.20;;
56728;SDS011;42612;52.232;7.560;2022-10-16T22:45:31;2.72;;;2.53;;
56728;SDS011;42612;52.232;7.560;2022-10-16T22:47:58;3.90;;;2.40;;
56728;SDS011;42612;52.232;7.560;2022-10-16T22:50:24;2.72;;;2.50;;
56728;SDS011;42612;52.232;7.560;2022-10-16T22:52:51;3.10;;;2.42;;
56728;SDS011;42612;52.232;7.560;2022-10-16T22:55:17;2.55;;;2.33;;
56728;SDS011;42612;52.232;7.560;2022-10-16T22:57:43;3.60;;;2.22;;
56728;SDS011;42612;52.232;7.560;2022-10-16T23:00:10;4.10;;;2.53;;
56728;SDS011;42612;52.232;7.560;2022-10-16T23:02:39;2.33;;;2.13;;
56728;SDS011;42612;52.232;7.560;2022-10-16T23:05:05;2.67;;;2.47;;
56728;SDS011;42612;52.232;7.560;2022-10-16T23:09:59;2.50;;;2.30;;
56728;SDS011;42612;52.232;7.560;2022-10-16T23:12:24;6.90;;;2.53;;
56728;SDS011;42612;52.232;7.560;2022-10-16T23:14:51;2.33;;;2.13;;
56728;SDS011;42612;52.232;7.560;2022-10-16T23:17:17;2.75;;;2.55;;
56728;SDS011;42612;52.232;7.560;2022-10-16T23:19:44;3.92;;;2.22;;
56728;SDS011;42612;52.232;7.560;2022-10-16T23:22:09;2.75;;;2.55;;
56728;SDS011;42612;52.232;7.560;2022-10-16T23:24:35;5.53;;;2.42;;
56728;SDS011;42612;52.232;7.560;2022-10-16T23:27:01;3.05;;;2.30;;
56728;SDS011;42612;52.232;7.560;2022-10-16T23:29:27;3.22;;;2.42;;
56728;SDS011;42612;52.232;7.560;2022-10-16T23:31:53;2.30;;;2.10;;
56728;SDS011;42612;52.232;7.560;2022-10-16T23:34:20;2.22;;;2.03;;
56728;SDS011;42612;52.232;7.560;2022-10-16T23:36:46;3.00;;;2.63;;
56728;SDS011;42612;52.232;7.560;2022-10-16T23:39:12;4.18;;;2.40;;
56728;SDS011;42612;52.232;7.560;2022-10-16T23:41:37;2.90;;;2.70;;
56728;SDS011;42612;52.232;7.560;2022-10-16T23:44:03;2.88;;;2.53;;
56728;SDS011;42612;52.232;7.560;2022-10-16T23:46:29;2.83;;;2.58;;
56728;SDS011;42612;52.232;7.560;2022-10-16T23:48:55;2.33;;;2.22;;
56728;SDS011;42612;52.232;7.560;2022-10-16T23:51:21;3.38;;;2.38;;
56728;SDS011;42612;52.232;7.560;2022-10-16T23:53:47;2.80;;;2.45;;
56728;SDS011;42612;52.232;7.560;2022-10-16T23:56:12;4.22;;;2.53;;
56728;SDS011;42612;52.232;7.560;2022-10-16T23:58:39;3.10;;;2.33;;
